createdAt,value
2017-08-02T00:00:23.147Z,1011.11
2017-08-02T00:00:49.277Z,1011.09
2017-08-02T00:01:15.411Z,1011.09
2017-08-02T00:01:41.568Z,1011.07
2017-08-02T00:02:07.673Z,1011.13
2017-08-02T00:02:33.835Z,1011.1
2017-08-02T00:02:59.997Z,1011.1
2017-08-02T00:03:26.165Z,1011.07
2017-08-02T00:03:52.294Z,1011.1
2017-08-02T00:04:18.481Z,1011.08
2017-08-02T00:04:44.640Z,1011.09
2017-08-02T00:05:10.747Z,1011.11
2017-08-02T00:05:36.911Z,1011.16
2017-08-02T00:06:03.043Z,1011.13
2017-08-02T00:06:29.177Z,1011.15
2017-08-02T00:06:55.338Z,1011.17
2017-08-02T00:07:21.527Z,1011.16
2017-08-02T00:07:47.659Z,1011.15
2017-08-02T00:08:13.792Z,1011.18
2017-08-02T00:08:39.951Z,1011.21
2017-08-02T00:09:06.113Z,1011.18
2017-08-02T00:09:32.246Z,1011.17
2017-08-02T00:09:58.436Z,1011.22
2017-08-02T00:10:24.622Z,1011.2
2017-08-02T00:10:50.758Z,1011.2
2017-08-02T00:11:16.948Z,1011.22
2017-08-02T00:11:43.110Z,1011.2
2017-08-02T00:12:09.242Z,1011.17
2017-08-02T00:12:35.405Z,1011.18
2017-08-02T00:13:01.564Z,1011.19
2017-08-02T00:13:27.669Z,1011.2
2017-08-02T00:13:53.803Z,1011.16
2017-08-02T00:14:19.936Z,1011.21
2017-08-02T00:14:46.070Z,1011.17
2017-08-02T00:15:12.262Z,1011.13
2017-08-02T00:15:38.478Z,1011.18
2017-08-02T00:16:04.610Z,1011.14
2017-08-02T00:16:30.828Z,1011.17
2017-08-02T00:16:56.991Z,1011.16
2017-08-02T00:17:23.126Z,1011.15
2017-08-02T00:17:49.362Z,1011.16
2017-08-02T00:18:15.504Z,1011.15
2017-08-02T00:18:41.664Z,1011.15
2017-08-02T00:19:07.796Z,1011.13
2017-08-02T00:19:34.012Z,1011.15
2017-08-02T00:20:00.117Z,1011.16
2017-08-02T00:20:26.275Z,1011.14
2017-08-02T00:20:52.465Z,1011.13
2017-08-02T00:21:18.626Z,1011.13
2017-08-02T00:21:44.759Z,1011.14
2017-08-02T00:22:10.888Z,1011.13
2017-08-02T00:22:37.048Z,1011.15
2017-08-02T00:23:03.154Z,1011.1
2017-08-02T00:23:29.285Z,1011.15
2017-08-02T00:23:55.391Z,1011.11
2017-08-02T00:24:21.579Z,1011.05
2017-08-02T00:24:47.739Z,1011.12
2017-08-02T00:25:13.898Z,1011.08
2017-08-02T00:25:40.060Z,1011.11
2017-08-02T00:26:06.194Z,1011.08
2017-08-02T00:26:32.356Z,1011.07
2017-08-02T00:26:58.569Z,1011.07
2017-08-02T00:27:24.676Z,1011.04
2017-08-02T00:27:50.781Z,1011.04
2017-08-02T00:28:16.971Z,1011.03
2017-08-02T00:28:43.132Z,1011.03
2017-08-02T00:29:09.267Z,1011.06
2017-08-02T00:29:35.402Z,1011.03
2017-08-02T00:30:01.558Z,1011.06
2017-08-02T00:30:27.819Z,1011.06
2017-08-02T00:30:53.977Z,1011.04
2017-08-02T00:31:20.139Z,1011.1
2017-08-02T00:31:46.297Z,1011.11
2017-08-02T00:32:12.410Z,1011.07
2017-08-02T00:32:38.537Z,1011.1
2017-08-02T00:33:04.644Z,1011.09
2017-08-02T00:33:30.776Z,1011.09
2017-08-02T00:33:56.910Z,1011.09
2017-08-02T00:34:23.073Z,1011.09
2017-08-02T00:34:49.209Z,1011.08
2017-08-02T00:35:15.342Z,1011.06
2017-08-02T00:35:41.530Z,1011.04
2017-08-02T00:36:07.718Z,1011.03
2017-08-02T00:36:33.905Z,1011
2017-08-02T00:37:00.038Z,1011.03
2017-08-02T00:37:26.196Z,1011.01
2017-08-02T00:37:52.330Z,1011
2017-08-02T00:38:18.492Z,1010.97
2017-08-02T00:38:44.679Z,1011.03
2017-08-02T00:39:10.870Z,1011.03
2017-08-02T00:39:36.975Z,1011.03
2017-08-02T00:40:03.107Z,1011.08
2017-08-02T00:40:29.238Z,1011.1
2017-08-02T00:40:55.372Z,1011.08
2017-08-02T00:41:21.528Z,1011.08
2017-08-02T00:41:47.635Z,1011.07
2017-08-02T00:42:13.737Z,1011.1
2017-08-02T00:42:39.872Z,1011.05
2017-08-02T00:43:06.006Z,1011.04
2017-08-02T00:43:32.169Z,1011.07
2017-08-02T00:43:58.357Z,1011.02
2017-08-02T00:44:24.520Z,1011.03
2017-08-02T00:44:50.630Z,1011.03
2017-08-02T00:45:16.760Z,1011.01
2017-08-02T00:45:42.924Z,1011.01
2017-08-02T00:46:09.086Z,1010.97
2017-08-02T00:46:35.192Z,1010.94
2017-08-02T00:47:01.295Z,1010.94
2017-08-02T00:47:27.429Z,1010.94
2017-08-02T00:47:53.563Z,1010.91
2017-08-02T00:48:19.747Z,1010.94
2017-08-02T00:48:45.910Z,1010.93
2017-08-02T00:49:12.072Z,1010.92
2017-08-02T00:49:38.233Z,1010.89
2017-08-02T00:50:04.337Z,1010.9
2017-08-02T00:50:30.471Z,1010.91
2017-08-02T00:50:56.604Z,1010.91
2017-08-02T00:51:22.737Z,1010.93
2017-08-02T00:51:48.870Z,1010.89
2017-08-02T00:52:15.005Z,1010.9
2017-08-02T00:52:41.165Z,1010.9
2017-08-02T00:53:07.355Z,1010.93
2017-08-02T00:53:33.514Z,1010.89
2017-08-02T00:53:59.618Z,1010.87
2017-08-02T00:54:25.726Z,1010.89
2017-08-02T00:54:51.883Z,1010.86
2017-08-02T00:55:18.071Z,1010.85
2017-08-02T00:55:44.259Z,1010.84
2017-08-02T00:56:10.391Z,1010.82
2017-08-02T00:56:36.581Z,1010.82
2017-08-02T00:57:02.742Z,1010.81
2017-08-02T00:57:28.875Z,1010.83
2017-08-02T00:57:55.033Z,1010.77
2017-08-02T00:58:21.164Z,1010.8
2017-08-02T00:58:47.376Z,1010.83
2017-08-02T00:59:13.534Z,1010.83
2017-08-02T00:59:39.669Z,1010.86
2017-08-02T01:00:05.829Z,1010.85
2017-08-02T01:00:32.047Z,1010.82
2017-08-02T01:00:58.211Z,1010.85
2017-08-02T01:01:24.400Z,1010.85
2017-08-02T01:01:50.589Z,1010.84
2017-08-02T01:02:16.748Z,1010.82
2017-08-02T01:02:42.883Z,1010.86
2017-08-02T01:03:09.017Z,1010.86
2017-08-02T01:03:35.124Z,1010.82
2017-08-02T01:04:01.257Z,1010.8
2017-08-02T01:04:27.417Z,1010.79
2017-08-02T01:04:53.577Z,1010.78
2017-08-02T01:05:19.768Z,1010.83
2017-08-02T01:05:45.928Z,1010.82
2017-08-02T01:06:12.091Z,1010.78
2017-08-02T01:06:38.225Z,1010.8
2017-08-02T01:07:04.411Z,1010.76
2017-08-02T01:07:30.544Z,1010.76
2017-08-02T01:07:56.678Z,1010.76
2017-08-02T01:08:22.782Z,1010.78
2017-08-02T01:08:48.913Z,1010.78
2017-08-02T01:09:15.042Z,1010.75
2017-08-02T01:09:41.201Z,1010.79
2017-08-02T01:10:07.390Z,1010.8
2017-08-02T01:10:33.496Z,1010.76
2017-08-02T01:10:59.630Z,1010.8
2017-08-02T01:11:25.819Z,1010.76
2017-08-02T01:11:51.980Z,1010.81
2017-08-02T01:12:18.115Z,1010.78
2017-08-02T01:12:44.245Z,1010.8
2017-08-02T01:13:10.407Z,1010.81
2017-08-02T01:13:36.595Z,1010.74
2017-08-02T01:14:02.728Z,1010.75
2017-08-02T01:14:28.835Z,1010.8
2017-08-02T01:14:55.027Z,1010.75
2017-08-02T01:15:21.208Z,1010.73
2017-08-02T01:15:47.371Z,1010.75
2017-08-02T01:16:13.559Z,1010.76
2017-08-02T01:16:39.749Z,1010.77
2017-08-02T01:17:05.938Z,1010.76
2017-08-02T01:17:32.075Z,1010.72
2017-08-02T01:17:58.315Z,1010.77
2017-08-02T01:18:24.419Z,1010.76
2017-08-02T01:18:50.607Z,1010.76
2017-08-02T01:19:16.766Z,1010.8
2017-08-02T01:19:42.901Z,1010.77
2017-08-02T01:20:09.085Z,1010.78
2017-08-02T01:20:35.190Z,1010.8
2017-08-02T01:21:01.323Z,1010.82
2017-08-02T01:21:27.483Z,1010.81
2017-08-02T01:21:53.617Z,1010.83
2017-08-02T01:22:19.777Z,1010.84
2017-08-02T01:22:45.937Z,1010.87
2017-08-02T01:23:12.067Z,1010.88
2017-08-02T01:23:38.173Z,1010.91
2017-08-02T01:24:04.279Z,1010.86
2017-08-02T01:24:30.417Z,1010.91
2017-08-02T01:24:56.602Z,1010.9
2017-08-02T01:25:22.762Z,1010.91
2017-08-02T01:25:48.979Z,1010.92
2017-08-02T01:26:15.088Z,1010.87
2017-08-02T01:26:41.195Z,1010.89
2017-08-02T01:27:07.357Z,1010.9
2017-08-02T01:27:33.487Z,1010.89
2017-08-02T01:27:59.620Z,1010.92
2017-08-02T01:28:25.781Z,1010.92
2017-08-02T01:28:51.942Z,1010.92
2017-08-02T01:29:18.047Z,1010.88
2017-08-02T01:29:44.207Z,1010.94
2017-08-02T01:30:10.390Z,1010.9
2017-08-02T01:30:36.549Z,1010.91
2017-08-02T01:31:02.768Z,1010.93
2017-08-02T01:31:28.902Z,1010.93
2017-08-02T01:31:55.037Z,1010.92
2017-08-02T01:32:21.226Z,1010.91
2017-08-02T01:32:47.409Z,1010.92
2017-08-02T01:33:13.567Z,1010.89
2017-08-02T01:33:39.727Z,1010.92
2017-08-02T01:34:05.832Z,1010.87
2017-08-02T01:34:32.019Z,1010.86
2017-08-02T01:34:58.151Z,1010.89
2017-08-02T01:35:24.286Z,1010.89
2017-08-02T01:35:50.449Z,1010.87
2017-08-02T01:36:16.582Z,1010.85
2017-08-02T01:36:42.687Z,1010.86
2017-08-02T01:37:08.819Z,1010.87
2017-08-02T01:37:35.006Z,1010.87
2017-08-02T01:38:01.139Z,1010.86
2017-08-02T01:38:27.274Z,1010.87
2017-08-02T01:38:53.433Z,1010.86
2017-08-02T01:39:19.538Z,1010.87
2017-08-02T01:39:45.726Z,1010.86
2017-08-02T01:40:11.885Z,1010.91
2017-08-02T01:40:38.017Z,1010.89
2017-08-02T01:41:04.204Z,1010.86
2017-08-02T01:41:30.310Z,1010.85
2017-08-02T01:41:56.442Z,1010.85
2017-08-02T01:42:22.546Z,1010.88
2017-08-02T01:42:48.678Z,1010.86
2017-08-02T01:43:14.810Z,1010.91
2017-08-02T01:43:40.941Z,1010.9
2017-08-02T01:44:07.103Z,1010.89
2017-08-02T01:44:33.263Z,1010.87
2017-08-02T01:44:59.424Z,1010.85
2017-08-02T01:45:25.582Z,1010.87
2017-08-02T01:45:51.687Z,1010.84
2017-08-02T01:46:17.819Z,1010.82
2017-08-02T01:46:43.923Z,1010.85
2017-08-02T01:47:10.112Z,1010.84
2017-08-02T01:47:36.244Z,1010.85
2017-08-02T01:48:02.408Z,1010.8
2017-08-02T01:48:28.544Z,1010.84
2017-08-02T01:48:54.704Z,1010.84
2017-08-02T01:49:20.969Z,1010.82
2017-08-02T01:49:47.127Z,1010.81
2017-08-02T01:50:13.287Z,1010.84
2017-08-02T01:50:39.419Z,1010.83
2017-08-02T01:51:05.552Z,1010.84
2017-08-02T01:51:31.686Z,1010.86
2017-08-02T01:51:57.819Z,1010.84
2017-08-02T01:52:23.981Z,1010.86
2017-08-02T01:52:50.086Z,1010.87
2017-08-02T01:53:16.221Z,1010.9
2017-08-02T01:53:42.410Z,1010.87
2017-08-02T01:54:08.544Z,1010.95
2017-08-02T01:54:34.679Z,1010.91
2017-08-02T01:55:00.814Z,1010.94
2017-08-02T01:55:27.080Z,1010.94
2017-08-02T01:55:53.240Z,1010.93
2017-08-02T01:56:19.403Z,1010.95
2017-08-02T01:56:45.535Z,1010.98
2017-08-02T01:57:11.668Z,1010.96
2017-08-02T01:57:37.856Z,1010.96
2017-08-02T01:58:04.017Z,1010.95
2017-08-02T01:58:30.178Z,1010.99
2017-08-02T01:58:56.336Z,1011.01
2017-08-02T01:59:22.469Z,1010.98
2017-08-02T01:59:48.633Z,1010.95
2017-08-02T02:00:14.793Z,1011
2017-08-02T02:00:40.927Z,1010.96
2017-08-02T02:01:07.091Z,1010.97
2017-08-02T02:01:33.249Z,1010.95
2017-08-02T02:01:59.355Z,1010.9
2017-08-02T02:02:25.544Z,1010.93
2017-08-02T02:02:51.703Z,1010.94
2017-08-02T02:03:17.837Z,1010.91
2017-08-02T02:03:43.997Z,1010.88
2017-08-02T02:04:10.183Z,1010.87
2017-08-02T02:04:36.316Z,1010.87
2017-08-02T02:05:02.484Z,1010.88
2017-08-02T02:05:28.585Z,1010.86
2017-08-02T02:05:54.719Z,1010.83
2017-08-02T02:06:20.913Z,1010.86
2017-08-02T02:06:47.016Z,1010.87
2017-08-02T02:07:13.203Z,1010.91
2017-08-02T02:07:39.311Z,1010.88
2017-08-02T02:08:05.446Z,1010.94
2017-08-02T02:08:31.582Z,1010.9
2017-08-02T02:08:57.713Z,1010.92
2017-08-02T02:09:23.877Z,1010.92
2017-08-02T02:09:50.037Z,1010.96
2017-08-02T02:10:16.199Z,1010.96
2017-08-02T02:10:42.359Z,1010.96
2017-08-02T02:11:08.521Z,1010.95
2017-08-02T02:11:34.706Z,1010.92
2017-08-02T02:12:00.812Z,1010.99
2017-08-02T02:12:26.943Z,1010.98
2017-08-02T02:12:53.075Z,1010.95
2017-08-02T02:13:19.294Z,1010.98
2017-08-02T02:13:45.454Z,1010.98
2017-08-02T02:14:11.560Z,1010.98
2017-08-02T02:14:37.694Z,1010.99
2017-08-02T02:15:03.826Z,1011.02
2017-08-02T02:15:29.986Z,1011.03
2017-08-02T02:15:56.122Z,1011.02
2017-08-02T02:16:22.284Z,1011.02
2017-08-02T02:16:48.443Z,1011.05
2017-08-02T02:17:14.578Z,1011.01
2017-08-02T02:17:40.768Z,1011.04
2017-08-02T02:18:06.901Z,1011.03
2017-08-02T02:18:33.032Z,1011
2017-08-02T02:18:59.222Z,1011.03
2017-08-02T02:19:25.384Z,1011
2017-08-02T02:19:51.517Z,1011.01
2017-08-02T02:20:17.653Z,1011.02
2017-08-02T02:20:43.843Z,1011
2017-08-02T02:21:09.952Z,1010.98
2017-08-02T02:21:36.084Z,1010.98
2017-08-02T02:22:02.275Z,1010.99
2017-08-02T02:22:28.408Z,1010.94
2017-08-02T02:22:54.515Z,1010.96
2017-08-02T02:23:20.676Z,1010.96
2017-08-02T02:23:46.860Z,1010.93
2017-08-02T02:24:13.019Z,1010.93
2017-08-02T02:24:39.209Z,1010.91
2017-08-02T02:25:05.421Z,1010.9
2017-08-02T02:25:31.606Z,1010.88
2017-08-02T02:25:57.739Z,1010.85
2017-08-02T02:26:23.873Z,1010.86
2017-08-02T02:26:50.085Z,1010.78
2017-08-02T02:27:16.274Z,1010.8
2017-08-02T02:27:42.493Z,1010.76
2017-08-02T02:28:08.656Z,1010.78
2017-08-02T02:28:34.761Z,1010.76
2017-08-02T02:29:00.893Z,1010.75
2017-08-02T02:29:27.081Z,1010.77
2017-08-02T02:29:53.240Z,1010.76
2017-08-02T02:30:19.400Z,1010.79
2017-08-02T02:30:45.559Z,1010.77
2017-08-02T02:31:11.727Z,1010.77
2017-08-02T02:31:37.883Z,1010.76
2017-08-02T02:32:04.073Z,1010.79
2017-08-02T02:32:30.233Z,1010.76
2017-08-02T02:32:56.366Z,1010.75
2017-08-02T02:33:22.582Z,1010.74
2017-08-02T02:33:48.743Z,1010.74
2017-08-02T02:34:14.874Z,1010.69
2017-08-02T02:34:41.008Z,1010.69
2017-08-02T02:35:07.167Z,1010.74
2017-08-02T02:35:33.355Z,1010.71
2017-08-02T02:35:59.541Z,1010.68
2017-08-02T02:36:25.703Z,1010.66
2017-08-02T02:36:51.892Z,1010.67
2017-08-02T02:37:18.026Z,1010.65
2017-08-02T02:37:44.214Z,1010.65
2017-08-02T02:38:10.404Z,1010.69
2017-08-02T02:38:36.564Z,1010.69
2017-08-02T02:39:02.724Z,1010.72
2017-08-02T02:39:28.860Z,1010.72
2017-08-02T02:39:55.078Z,1010.73
2017-08-02T02:40:21.241Z,1010.75
2017-08-02T02:40:47.401Z,1010.77
2017-08-02T02:41:13.511Z,1010.75
2017-08-02T02:41:39.697Z,1010.77
2017-08-02T02:42:05.815Z,1010.79
2017-08-02T02:42:32.003Z,1010.76
2017-08-02T02:42:58.167Z,1010.77
2017-08-02T02:43:24.344Z,1010.76
2017-08-02T02:43:50.433Z,1010.74
2017-08-02T02:44:16.595Z,1010.73
2017-08-02T02:44:42.703Z,1010.72
2017-08-02T02:45:08.905Z,1010.72
2017-08-02T02:45:35.109Z,1010.7
2017-08-02T02:46:01.223Z,1010.66
2017-08-02T02:46:27.387Z,1010.64
2017-08-02T02:46:53.564Z,1010.67
2017-08-02T02:47:19.680Z,1010.61
2017-08-02T02:47:45.812Z,1010.58
2017-08-02T02:48:13.370Z,1010.59
2017-08-02T02:48:39.503Z,1010.57
2017-08-02T02:49:05.648Z,1010.58
2017-08-02T02:49:31.813Z,1010.59
2017-08-02T02:49:57.945Z,1010.58
2017-08-02T02:50:24.093Z,1010.61
2017-08-02T02:50:50.257Z,1010.67
2017-08-02T02:51:16.412Z,1010.63
2017-08-02T02:51:42.557Z,1010.69
2017-08-02T02:52:08.746Z,1010.65
2017-08-02T02:52:34.891Z,1010.72
2017-08-02T02:53:01.031Z,1010.75
2017-08-02T02:53:27.193Z,1010.72
2017-08-02T02:53:53.314Z,1010.71
2017-08-02T02:54:19.429Z,1010.7
2017-08-02T02:54:45.592Z,1010.71
2017-08-02T02:55:11.746Z,1010.69
2017-08-02T02:55:37.862Z,1010.67
2017-08-02T02:56:04.047Z,1010.68
2017-08-02T02:56:30.211Z,1010.69
2017-08-02T02:56:56.329Z,1010.69
2017-08-02T02:57:22.502Z,1010.66
2017-08-02T02:57:48.614Z,1010.66
2017-08-02T02:58:14.774Z,1010.68
2017-08-02T02:58:40.900Z,1010.68
2017-08-02T02:59:06.989Z,1010.66
2017-08-02T02:59:33.141Z,1010.68
2017-08-02T02:59:59.276Z,1010.71
2017-08-02T03:00:25.458Z,1010.69
2017-08-02T03:00:51.585Z,1010.71
2017-08-02T03:01:17.747Z,1010.74
2017-08-02T03:01:43.864Z,1010.73
2017-08-02T03:02:09.982Z,1010.77
2017-08-02T03:02:36.105Z,1010.78
2017-08-02T03:03:02.289Z,1010.81
2017-08-02T03:03:28.450Z,1010.81
2017-08-02T03:03:54.589Z,1010.81
2017-08-02T03:04:20.766Z,1010.85
2017-08-02T03:04:46.872Z,1010.88
2017-08-02T03:05:12.982Z,1010.85
2017-08-02T03:05:39.123Z,1010.86
2017-08-02T03:06:05.283Z,1010.87
2017-08-02T03:06:31.402Z,1010.87
2017-08-02T03:06:57.542Z,1010.89
2017-08-02T03:07:23.651Z,1010.91
2017-08-02T03:07:49.800Z,1010.89
2017-08-02T03:08:15.926Z,1010.89
2017-08-02T03:08:42.039Z,1010.9
2017-08-02T03:09:08.209Z,1010.94
2017-08-02T03:09:34.372Z,1010.94
2017-08-02T03:10:00.513Z,1010.92
2017-08-02T03:10:26.628Z,1010.9
2017-08-02T03:10:52.765Z,1010.89
2017-08-02T03:11:18.887Z,1010.88
2017-08-02T03:11:44.999Z,1010.85
2017-08-02T03:12:11.131Z,1010.85
2017-08-02T03:12:37.315Z,1010.85
2017-08-02T03:13:03.481Z,1010.83
2017-08-02T03:13:29.634Z,1010.81
2017-08-02T03:13:55.747Z,1010.85
2017-08-02T03:14:21.911Z,1010.88
2017-08-02T03:14:48.062Z,1010.86
2017-08-02T03:15:14.227Z,1010.88
2017-08-02T03:15:40.388Z,1010.92
2017-08-02T03:16:06.570Z,1010.92
2017-08-02T03:16:32.687Z,1010.95
2017-08-02T03:16:58.815Z,1010.98
2017-08-02T03:17:25.002Z,1011.01
2017-08-02T03:17:51.086Z,1011.03
2017-08-02T03:18:17.237Z,1011.06
2017-08-02T03:18:43.341Z,1011.06
2017-08-02T03:19:09.433Z,1011.08
2017-08-02T03:19:35.551Z,1011.1
2017-08-02T03:20:01.740Z,1011.09
2017-08-02T03:20:27.856Z,1011.09
2017-08-02T03:20:53.972Z,1011.09
2017-08-02T03:21:20.163Z,1011.07
2017-08-02T03:21:46.286Z,1011.07
2017-08-02T03:22:12.475Z,1011.07
2017-08-02T03:22:38.609Z,1011.04
2017-08-02T03:23:04.792Z,1011.02
2017-08-02T03:23:30.905Z,1011.01
2017-08-02T03:23:57.060Z,1011.02
2017-08-02T03:24:23.271Z,1010.98
2017-08-02T03:24:49.435Z,1010.98
2017-08-02T03:25:15.560Z,1010.95
2017-08-02T03:25:41.699Z,1010.92
2017-08-02T03:26:07.835Z,1010.94
2017-08-02T03:26:33.987Z,1010.88
2017-08-02T03:27:00.104Z,1010.89
2017-08-02T03:27:26.257Z,1010.91
2017-08-02T03:27:52.475Z,1010.88
2017-08-02T03:28:18.636Z,1010.85
2017-08-02T03:28:44.786Z,1010.84
2017-08-02T03:29:10.920Z,1010.78
2017-08-02T03:29:37.087Z,1010.78
2017-08-02T03:30:03.210Z,1010.77
2017-08-02T03:30:29.415Z,1010.74
2017-08-02T03:30:55.620Z,1010.74
2017-08-02T03:31:21.810Z,1010.76
2017-08-02T03:31:47.919Z,1010.74
2017-08-02T03:32:14.068Z,1010.72
2017-08-02T03:32:40.201Z,1010.74
2017-08-02T03:33:06.315Z,1010.74
2017-08-02T03:33:32.510Z,1010.75
2017-08-02T03:33:58.666Z,1010.79
2017-08-02T03:34:24.836Z,1010.83
2017-08-02T03:34:50.976Z,1010.84
2017-08-02T03:35:17.135Z,1010.84
2017-08-02T03:35:43.340Z,1010.83
2017-08-02T03:36:09.525Z,1010.84
2017-08-02T03:36:35.611Z,1010.8
2017-08-02T03:37:01.759Z,1010.88
2017-08-02T03:37:27.865Z,1010.89
2017-08-02T03:37:53.981Z,1010.9
2017-08-02T03:38:20.095Z,1010.9
2017-08-02T03:38:46.260Z,1010.92
2017-08-02T03:39:12.411Z,1010.94
2017-08-02T03:39:38.576Z,1010.96
2017-08-02T03:40:04.706Z,1010.93
2017-08-02T03:40:30.915Z,1010.95
2017-08-02T03:40:57.026Z,1010.94
2017-08-02T03:41:23.154Z,1010.91
2017-08-02T03:41:49.242Z,1010.89
2017-08-02T03:42:15.407Z,1010.93
2017-08-02T03:42:41.586Z,1010.9
2017-08-02T03:43:07.701Z,1010.88
2017-08-02T03:43:33.884Z,1010.83
2017-08-02T03:43:59.982Z,1010.84
2017-08-02T03:44:26.098Z,1010.82
2017-08-02T03:44:52.224Z,1010.82
2017-08-02T03:45:18.356Z,1010.79
2017-08-02T03:45:44.516Z,1010.79
2017-08-02T03:46:10.664Z,1010.71
2017-08-02T03:46:36.795Z,1010.69
2017-08-02T03:47:02.886Z,1010.67
2017-08-02T03:47:28.987Z,1010.64
2017-08-02T03:47:55.105Z,1010.63
2017-08-02T03:48:21.260Z,1010.6
2017-08-02T03:48:47.394Z,1010.64
2017-08-02T03:49:13.503Z,1010.63
2017-08-02T03:49:39.648Z,1010.64
2017-08-02T03:50:05.807Z,1010.62
2017-08-02T03:50:31.896Z,1010.64
2017-08-02T03:50:58.017Z,1010.62
2017-08-02T03:51:24.207Z,1010.64
2017-08-02T03:51:50.375Z,1010.71
2017-08-02T03:52:16.488Z,1010.66
2017-08-02T03:52:42.591Z,1010.7
2017-08-02T03:53:08.739Z,1010.73
2017-08-02T03:53:34.898Z,1010.7
2017-08-02T03:54:01.041Z,1010.75
2017-08-02T03:54:27.162Z,1010.73
2017-08-02T03:54:53.294Z,1010.73
2017-08-02T03:55:19.436Z,1010.74
2017-08-02T03:55:45.551Z,1010.76
2017-08-02T03:56:11.689Z,1010.75
2017-08-02T03:56:37.811Z,1010.8
2017-08-02T03:57:03.953Z,1010.77
2017-08-02T03:57:30.076Z,1010.75
2017-08-02T03:57:56.256Z,1010.78
2017-08-02T03:58:22.356Z,1010.77
2017-08-02T03:58:48.474Z,1010.78
2017-08-02T03:59:14.588Z,1010.78
2017-08-02T03:59:40.751Z,1010.76
2017-08-02T04:00:06.877Z,1010.75
2017-08-02T04:00:32.989Z,1010.75
2017-08-02T04:00:59.120Z,1010.74
2017-08-02T04:01:25.248Z,1010.73
2017-08-02T04:01:51.365Z,1010.74
2017-08-02T04:02:17.492Z,1010.73
2017-08-02T04:02:43.707Z,1010.75
2017-08-02T04:03:09.841Z,1010.78
2017-08-02T04:03:35.940Z,1010.78
2017-08-02T04:04:02.046Z,1010.79
2017-08-02T04:04:28.162Z,1010.78
2017-08-02T04:04:54.331Z,1010.81
2017-08-02T04:05:20.490Z,1010.75
2017-08-02T04:05:46.636Z,1010.75
2017-08-02T04:06:12.749Z,1010.74
2017-08-02T04:06:38.884Z,1010.72
2017-08-02T04:07:05.007Z,1010.73
2017-08-02T04:07:31.170Z,1010.68
2017-08-02T04:07:57.328Z,1010.69
2017-08-02T04:08:23.509Z,1010.69
2017-08-02T04:08:49.646Z,1010.75
2017-08-02T04:09:15.825Z,1010.69
2017-08-02T04:09:41.964Z,1010.72
2017-08-02T04:10:08.129Z,1010.72
2017-08-02T04:10:34.255Z,1010.68
2017-08-02T04:11:00.413Z,1010.7
2017-08-02T04:11:26.572Z,1010.68
2017-08-02T04:11:52.730Z,1010.73
2017-08-02T04:12:18.866Z,1010.71
2017-08-02T04:12:44.991Z,1010.74
2017-08-02T04:13:11.152Z,1010.74
2017-08-02T04:13:37.262Z,1010.72
2017-08-02T04:14:03.410Z,1010.76
2017-08-02T04:14:29.575Z,1010.73
2017-08-02T04:14:55.666Z,1010.72
2017-08-02T04:15:21.851Z,1010.73
2017-08-02T04:15:48.015Z,1010.76
2017-08-02T04:16:14.147Z,1010.75
2017-08-02T04:16:40.252Z,1010.75
2017-08-02T04:17:06.415Z,1010.75
2017-08-02T04:17:32.567Z,1010.76
2017-08-02T04:17:58.728Z,1010.77
2017-08-02T04:18:24.871Z,1010.8
2017-08-02T04:18:50.990Z,1010.79
2017-08-02T04:19:17.120Z,1010.81
2017-08-02T04:19:43.295Z,1010.76
2017-08-02T04:20:09.458Z,1010.82
2017-08-02T04:20:35.560Z,1010.79
2017-08-02T04:21:01.711Z,1010.79
2017-08-02T04:21:27.840Z,1010.82
2017-08-02T04:21:53.954Z,1010.82
2017-08-02T04:22:20.126Z,1010.81
2017-08-02T04:22:46.258Z,1010.84
2017-08-02T04:23:12.405Z,1010.84
2017-08-02T04:23:38.516Z,1010.8
2017-08-02T04:24:04.653Z,1010.81
2017-08-02T04:24:30.800Z,1010.8
2017-08-02T04:24:56.912Z,1010.81
2017-08-02T04:25:23.049Z,1010.83
2017-08-02T04:25:49.174Z,1010.82
2017-08-02T04:26:15.337Z,1010.81
2017-08-02T04:26:41.518Z,1010.86
2017-08-02T04:27:07.678Z,1010.85
2017-08-02T04:27:33.838Z,1010.87
2017-08-02T04:27:59.989Z,1010.88
2017-08-02T04:28:26.173Z,1010.88
2017-08-02T04:28:52.337Z,1010.91
2017-08-02T04:29:18.507Z,1010.91
2017-08-02T04:29:44.613Z,1010.9
2017-08-02T04:30:10.733Z,1010.92
2017-08-02T04:30:36.870Z,1010.91
2017-08-02T04:31:03.034Z,1010.9
2017-08-02T04:31:29.131Z,1010.9
2017-08-02T04:31:55.308Z,1010.93
2017-08-02T04:32:21.424Z,1010.88
2017-08-02T04:32:47.518Z,1010.94
2017-08-02T04:33:13.679Z,1010.91
2017-08-02T04:33:39.800Z,1010.96
2017-08-02T04:34:05.890Z,1010.94
2017-08-02T04:34:32.027Z,1010.93
2017-08-02T04:34:58.151Z,1010.98
2017-08-02T04:35:24.267Z,1011
2017-08-02T04:35:50.477Z,1011
2017-08-02T04:36:16.579Z,1011.01
2017-08-02T04:36:42.668Z,1011.06
2017-08-02T04:37:08.769Z,1011
2017-08-02T04:37:34.867Z,1011.04
2017-08-02T04:38:01.053Z,1011.03
2017-08-02T04:38:27.200Z,1011.06
2017-08-02T04:38:53.343Z,1011.04
2017-08-02T04:39:19.503Z,1011.09
2017-08-02T04:39:45.631Z,1011.11
2017-08-02T04:40:11.744Z,1011.06
2017-08-02T04:40:37.874Z,1011.08
2017-08-02T04:41:04.005Z,1011.09
2017-08-02T04:41:30.162Z,1011.03
2017-08-02T04:41:56.286Z,1011.07
2017-08-02T04:42:22.448Z,1011.08
2017-08-02T04:42:48.563Z,1011.07
2017-08-02T04:43:14.751Z,1011.03
2017-08-02T04:43:40.840Z,1011.06
2017-08-02T04:44:07.020Z,1011.05
2017-08-02T04:44:33.181Z,1011.04
2017-08-02T04:44:59.296Z,1011.05
2017-08-02T04:45:25.469Z,1011.04
2017-08-02T04:45:51.659Z,1011
2017-08-02T04:46:17.776Z,1011.02
2017-08-02T04:46:43.895Z,1011.03
2017-08-02T04:47:10.004Z,1011
2017-08-02T04:47:36.150Z,1010.97
2017-08-02T04:48:02.260Z,1010.97
2017-08-02T04:48:28.397Z,1010.96
2017-08-02T04:48:54.545Z,1010.94
2017-08-02T04:49:20.688Z,1010.94
2017-08-02T04:49:46.866Z,1010.91
2017-08-02T04:50:12.995Z,1010.89
2017-08-02T04:50:39.133Z,1010.89
2017-08-02T04:51:05.261Z,1010.88
2017-08-02T04:51:31.397Z,1010.87
2017-08-02T04:51:57.533Z,1010.89
2017-08-02T04:52:23.660Z,1010.86
2017-08-02T04:52:49.822Z,1010.87
2017-08-02T04:53:15.937Z,1010.86
2017-08-02T04:53:42.059Z,1010.83
2017-08-02T04:54:08.178Z,1010.87
2017-08-02T04:54:34.309Z,1010.85
2017-08-02T04:55:00.495Z,1010.87
2017-08-02T04:55:26.643Z,1010.84
2017-08-02T04:55:52.816Z,1010.86
2017-08-02T04:56:19.006Z,1010.85
2017-08-02T04:56:45.149Z,1010.86
2017-08-02T04:57:11.317Z,1010.89
2017-08-02T04:57:37.449Z,1010.86
2017-08-02T04:58:03.569Z,1010.88
2017-08-02T04:58:29.683Z,1010.86
2017-08-02T04:58:55.820Z,1010.87
2017-08-02T04:59:21.941Z,1010.86
2017-08-02T04:59:48.043Z,1010.89
2017-08-02T05:00:14.210Z,1010.89
2017-08-02T05:00:40.330Z,1010.88
2017-08-02T05:01:06.464Z,1010.88
2017-08-02T05:01:32.585Z,1010.84
2017-08-02T05:01:58.750Z,1010.89
2017-08-02T05:02:24.886Z,1010.93
2017-08-02T05:02:51.030Z,1010.92
2017-08-02T05:03:17.145Z,1010.89
2017-08-02T05:03:43.332Z,1010.87
2017-08-02T05:04:09.484Z,1010.9
2017-08-02T05:04:35.597Z,1010.91
2017-08-02T05:05:01.727Z,1010.92
2017-08-02T05:05:27.893Z,1010.92
2017-08-02T05:05:54.087Z,1010.93
2017-08-02T05:06:20.239Z,1010.93
2017-08-02T05:06:46.354Z,1010.98
2017-08-02T05:07:12.590Z,1010.97
2017-08-02T05:07:38.827Z,1010.98
2017-08-02T05:08:04.967Z,1010.99
2017-08-02T05:08:31.093Z,1010.99
2017-08-02T05:08:57.227Z,1011
2017-08-02T05:09:23.341Z,1010.98
2017-08-02T05:09:49.465Z,1011.01
2017-08-02T05:10:15.600Z,1010.97
2017-08-02T05:10:41.792Z,1010.93
2017-08-02T05:11:07.949Z,1010.97
2017-08-02T05:11:34.086Z,1010.89
2017-08-02T05:12:00.213Z,1010.91
2017-08-02T05:12:26.375Z,1010.89
2017-08-02T05:12:52.462Z,1010.87
2017-08-02T05:13:18.607Z,1010.85
2017-08-02T05:13:44.766Z,1010.86
2017-08-02T05:14:10.910Z,1010.85
2017-08-02T05:14:37.083Z,1010.84
2017-08-02T05:15:03.219Z,1010.82
2017-08-02T05:15:29.386Z,1010.79
2017-08-02T05:15:55.501Z,1010.78
2017-08-02T05:16:21.631Z,1010.83
2017-08-02T05:16:47.731Z,1010.77
2017-08-02T05:17:13.861Z,1010.78
2017-08-02T05:17:39.980Z,1010.77